sensor_id;sensor_type;location;lat;lon;timestamp;P1;durP1;ratioP1;P2;durP2;ratioP2
75427;SDS011;64008;55.612;37.698;2023-08-31T00:01:38;9.48;;;3.45;;
75427;SDS011;64008;55.612;37.698;2023-08-31T00:04:04;7.38;;;3.80;;
75427;SDS011;64008;55.612;37.698;2023-08-31T00:06:33;8.00;;;3.47;;
75427;SDS011;64008;55.612;37.698;2023-08-31T00:08:58;6.60;;;3.25;;
75427;SDS011;64008;55.612;37.698;2023-08-31T00:11:24;7.57;;;3.60;;
75427;SDS011;64008;55.612;37.698;2023-08-31T00:13:51;8.75;;;3.45;;
75427;SDS011;64008;55.612;37.698;2023-08-31T00:16:17;7.22;;;3.28;;
75427;SDS011;64008;55.612;37.698;2023-08-31T00:18:43;8.60;;;3.47;;
75427;SDS011;64008;55.612;37.698;2023-08-31T00:21:10;7.72;;;3.17;;
75427;SDS011;64008;55.612;37.698;2023-08-31T00:23:36;9.07;;;3.40;;
75427;SDS011;64008;55.612;37.698;2023-08-31T00:26:02;7.53;;;3.10;;
75427;SDS011;64008;55.612;37.698;2023-08-31T00:28:28;8.52;;;3.33;;
75427;SDS011;64008;55.612;37.698;2023-08-31T00:30:53;8.20;;;3.00;;
75427;SDS011;64008;55.612;37.698;2023-08-31T00:33:19;6.18;;;3.25;;
75427;SDS011;64008;55.612;37.698;2023-08-31T00:35:44;7.90;;;3.42;;
75427;SDS011;64008;55.612;37.698;2023-08-31T00:38:13;8.25;;;3.72;;
75427;SDS011;64008;55.612;37.698;2023-08-31T00:40:39;8.38;;;4.15;;
75427;SDS011;64008;55.612;37.698;2023-08-31T00:43:10;9.65;;;4.03;;
75427;SDS011;64008;55.612;37.698;2023-08-31T00:45:37;7.50;;;4.15;;
75427;SDS011;64008;55.612;37.698;2023-08-31T00:50:29;7.88;;;3.75;;
75427;SDS011;64008;55.612;37.698;2023-08-31T00:52:55;7.70;;;3.67;;
75427;SDS011;64008;55.612;37.698;2023-08-31T00:55:20;9.65;;;4.70;;
75427;SDS011;64008;55.612;37.698;2023-08-31T00:57:46;7.70;;;4.25;;
75427;SDS011;64008;55.612;37.698;2023-08-31T01:00:12;9.60;;;4.55;;
75427;SDS011;64008;55.612;37.698;2023-08-31T01:14:32;11.18;;;4.50;;
75427;SDS011;64008;55.612;37.698;2023-08-31T01:17:04;9.38;;;5.10;;
75427;SDS011;64008;55.612;37.698;2023-08-31T01:22:43;9.60;;;4.97;;
75427;SDS011;64008;55.612;37.698;2023-08-31T01:25:16;10.15;;;5.03;;
75427;SDS011;64008;55.612;37.698;2023-08-31T01:27:43;7.88;;;4.10;;
75427;SDS011;64008;55.612;37.698;2023-08-31T01:30:08;8.32;;;4.75;;
75427;SDS011;64008;55.612;37.698;2023-08-31T01:32:34;8.27;;;4.70;;
75427;SDS011;64008;55.612;37.698;2023-08-31T01:35:02;8.55;;;4.40;;
75427;SDS011;64008;55.612;37.698;2023-08-31T01:37:42;10.15;;;4.85;;
75427;SDS011;64008;55.612;37.698;2023-08-31T01:40:17;7.93;;;4.53;;
75427;SDS011;64008;55.612;37.698;2023-08-31T01:42:46;8.73;;;4.50;;
75427;SDS011;64008;55.612;37.698;2023-08-31T01:45:14;7.97;;;4.65;;
75427;SDS011;64008;55.612;37.698;2023-08-31T01:47:44;9.25;;;4.15;;
75427;SDS011;64008;55.612;37.698;2023-08-31T01:50:10;8.43;;;4.28;;
75427;SDS011;64008;55.612;37.698;2023-08-31T01:52:36;7.18;;;4.22;;
75427;SDS011;64008;55.612;37.698;2023-08-31T01:55:02;8.60;;;3.95;;
75427;SDS011;64008;55.612;37.698;2023-08-31T01:57:28;8.77;;;4.13;;
75427;SDS011;64008;55.612;37.698;2023-08-31T01:59:54;8.98;;;4.35;;
75427;SDS011;64008;55.612;37.698;2023-08-31T02:02:19;9.75;;;3.92;;
75427;SDS011;64008;55.612;37.698;2023-08-31T02:04:46;8.27;;;4.22;;
75427;SDS011;64008;55.612;37.698;2023-08-31T02:09:36;7.47;;;3.07;;
75427;SDS011;64008;55.612;37.698;2023-08-31T02:12:02;8.85;;;3.50;;
75427;SDS011;64008;55.612;37.698;2023-08-31T02:14:29;8.20;;;3.50;;
75427;SDS011;64008;55.612;37.698;2023-08-31T02:16:55;8.40;;;3.58;;
75427;SDS011;64008;55.612;37.698;2023-08-31T02:19:20;7.22;;;3.25;;
75427;SDS011;64008;55.612;37.698;2023-08-31T02:21:47;6.60;;;3.75;;
75427;SDS011;64008;55.612;37.698;2023-08-31T02:24:12;7.70;;;4.03;;
75427;SDS011;64008;55.612;37.698;2023-08-31T02:26:38;7.10;;;3.70;;
75427;SDS011;64008;55.612;37.698;2023-08-31T02:29:03;8.15;;;4.15;;
75427;SDS011;64008;55.612;37.698;2023-08-31T02:31:29;7.72;;;3.50;;
75427;SDS011;64008;55.612;37.698;2023-08-31T02:33:55;8.60;;;4.15;;
75427;SDS011;64008;55.612;37.698;2023-08-31T02:36:20;8.65;;;3.90;;
75427;SDS011;64008;55.612;37.698;2023-08-31T02:38:46;7.47;;;3.40;;
75427;SDS011;64008;55.612;37.698;2023-08-31T02:41:12;7.30;;;3.80;;
75427;SDS011;64008;55.612;37.698;2023-08-31T02:43:38;8.25;;;4.15;;
75427;SDS011;64008;55.612;37.698;2023-08-31T02:46:04;8.70;;;4.97;;
75427;SDS011;64008;55.612;37.698;2023-08-31T02:48:32;6.85;;;3.53;;
75427;SDS011;64008;55.612;37.698;2023-08-31T02:50:58;9.18;;;4.05;;
75427;SDS011;64008;55.612;37.698;2023-08-31T02:53:28;9.07;;;3.67;;
75427;SDS011;64008;55.612;37.698;2023-08-31T02:55:54;7.10;;;3.72;;
75427;SDS011;64008;55.612;37.698;2023-08-31T02:58:20;9.23;;;4.00;;
75427;SDS011;64008;55.612;37.698;2023-08-31T03:00:45;8.70;;;3.90;;
75427;SDS011;64008;55.612;37.698;2023-08-31T03:03:14;8.98;;;3.95;;
75427;SDS011;64008;55.612;37.698;2023-08-31T03:05:40;7.38;;;3.80;;
75427;SDS011;64008;55.612;37.698;2023-08-31T03:08:06;7.22;;;3.60;;
75427;SDS011;64008;55.612;37.698;2023-08-31T03:10:31;7.97;;;3.75;;
75427;SDS011;64008;55.612;37.698;2023-08-31T03:12:57;6.97;;;3.50;;
75427;SDS011;64008;55.612;37.698;2023-08-31T03:15:22;9.13;;;3.03;;
75427;SDS011;64008;55.612;37.698;2023-08-31T03:17:48;7.13;;;3.05;;
75427;SDS011;64008;55.612;37.698;2023-08-31T03:20:13;8.27;;;4.38;;
75427;SDS011;64008;55.612;37.698;2023-08-31T03:22:39;8.60;;;3.45;;
75427;SDS011;64008;55.612;37.698;2023-08-31T03:25:05;6.97;;;3.53;;
75427;SDS011;64008;55.612;37.698;2023-08-31T03:27:30;8.00;;;3.35;;
75427;SDS011;64008;55.612;37.698;2023-08-31T03:29:56;7.95;;;3.40;;
75427;SDS011;64008;55.612;37.698;2023-08-31T03:32:21;7.63;;;3.63;;
75427;SDS011;64008;55.612;37.698;2023-08-31T03:34:47;8.35;;;3.05;;
75427;SDS011;64008;55.612;37.698;2023-08-31T03:37:12;6.25;;;2.90;;
75427;SDS011;64008;55.612;37.698;2023-08-31T03:39:38;6.72;;;3.25;;
75427;SDS011;64008;55.612;37.698;2023-08-31T03:42:05;7.38;;;3.42;;
75427;SDS011;64008;55.612;37.698;2023-08-31T03:44:31;7.10;;;3.60;;
75427;SDS011;64008;55.612;37.698;2023-08-31T03:46:56;6.03;;;3.15;;
75427;SDS011;64008;55.612;37.698;2023-08-31T03:49:22;9.70;;;3.50;;
75427;SDS011;64008;55.612;37.698;2023-08-31T03:51:47;7.15;;;3.78;;
75427;SDS011;64008;55.612;37.698;2023-08-31T03:54:13;8.43;;;3.83;;
75427;SDS011;64008;55.612;37.698;2023-08-31T03:56:39;8.35;;;3.50;;
75427;SDS011;64008;55.612;37.698;2023-08-31T03:59:05;9.27;;;3.78;;
75427;SDS011;64008;55.612;37.698;2023-08-31T04:01:30;9.48;;;4.18;;
75427;SDS011;64008;55.612;37.698;2023-08-31T04:03:56;7.45;;;3.65;;
75427;SDS011;64008;55.612;37.698;2023-08-31T04:06:22;8.43;;;3.00;;
75427;SDS011;64008;55.612;37.698;2023-08-31T04:08:47;7.63;;;3.75;;
75427;SDS011;64008;55.612;37.698;2023-08-31T04:11:13;6.82;;;3.67;;
75427;SDS011;64008;55.612;37.698;2023-08-31T04:13:38;8.63;;;3.53;;
75427;SDS011;64008;55.612;37.698;2023-08-31T04:16:04;7.93;;;3.70;;
75427;SDS011;64008;55.612;37.698;2023-08-31T04:18:30;7.60;;;3.47;;
75427;SDS011;64008;55.612;37.698;2023-08-31T04:20:56;11.68;;;3.92;;
75427;SDS011;64008;55.612;37.698;2023-08-31T04:23:24;8.75;;;4.60;;
75427;SDS011;64008;55.612;37.698;2023-08-31T04:25:49;8.32;;;3.65;;
75427;SDS011;64008;55.612;37.698;2023-08-31T04:30:42;9.38;;;3.78;;
75427;SDS011;64008;55.612;37.698;2023-08-31T04:33:08;7.30;;;3.78;;
75427;SDS011;64008;55.612;37.698;2023-08-31T04:35:33;11.80;;;4.30;;
75427;SDS011;64008;55.612;37.698;2023-08-31T04:37:59;10.77;;;4.57;;
75427;SDS011;64008;55.612;37.698;2023-08-31T04:40:25;11.40;;;4.53;;
75427;SDS011;64008;55.612;37.698;2023-08-31T04:42:52;9.57;;;4.38;;
75427;SDS011;64008;55.612;37.698;2023-08-31T04:45:18;9.45;;;4.57;;
75427;SDS011;64008;55.612;37.698;2023-08-31T04:47:44;10.85;;;4.80;;
75427;SDS011;64008;55.612;37.698;2023-08-31T04:50:10;8.60;;;4.30;;
75427;SDS011;64008;55.612;37.698;2023-08-31T04:52:35;10.73;;;5.10;;
75427;SDS011;64008;55.612;37.698;2023-08-31T04:55:01;10.25;;;4.63;;
75427;SDS011;64008;55.612;37.698;2023-08-31T04:57:28;9.93;;;4.53;;
75427;SDS011;64008;55.612;37.698;2023-08-31T04:59:54;9.38;;;3.70;;
75427;SDS011;64008;55.612;37.698;2023-08-31T05:02:20;7.10;;;3.92;;
75427;SDS011;64008;55.612;37.698;2023-08-31T05:04:45;7.35;;;4.18;;
75427;SDS011;64008;55.612;37.698;2023-08-31T05:07:11;8.80;;;3.95;;
75427;SDS011;64008;55.612;37.698;2023-08-31T05:09:37;7.68;;;3.88;;
75427;SDS011;64008;55.612;37.698;2023-08-31T05:12:02;8.07;;;3.67;;
75427;SDS011;64008;55.612;37.698;2023-08-31T05:14:28;7.55;;;3.78;;
75427;SDS011;64008;55.612;37.698;2023-08-31T05:16:54;8.73;;;3.90;;
75427;SDS011;64008;55.612;37.698;2023-08-31T05:19:20;8.23;;;3.75;;
75427;SDS011;64008;55.612;37.698;2023-08-31T05:21:46;7.95;;;3.72;;
75427;SDS011;64008;55.612;37.698;2023-08-31T05:24:11;9.05;;;3.78;;
75427;SDS011;64008;55.612;37.698;2023-08-31T05:26:37;7.97;;;3.15;;
75427;SDS011;64008;55.612;37.698;2023-08-31T05:29:04;7.28;;;3.70;;
75427;SDS011;64008;55.612;37.698;2023-08-31T05:31:30;9.50;;;4.47;;
75427;SDS011;64008;55.612;37.698;2023-08-31T05:33:56;8.65;;;3.80;;
75427;SDS011;64008;55.612;37.698;2023-08-31T05:36:21;7.50;;;3.65;;
75427;SDS011;64008;55.612;37.698;2023-08-31T05:38:47;6.85;;;3.70;;
75427;SDS011;64008;55.612;37.698;2023-08-31T05:41:12;8.52;;;3.67;;
75427;SDS011;64008;55.612;37.698;2023-08-31T05:43:38;7.97;;;3.80;;
75427;SDS011;64008;55.612;37.698;2023-08-31T05:46:06;8.77;;;3.40;;
75427;SDS011;64008;55.612;37.698;2023-08-31T05:48:33;9.10;;;3.60;;
75427;SDS011;64008;55.612;37.698;2023-08-31T05:50:59;11.38;;;5.50;;
75427;SDS011;64008;55.612;37.698;2023-08-31T05:53:26;8.32;;;4.15;;
75427;SDS011;64008;55.612;37.698;2023-08-31T05:55:53;10.18;;;4.13;;
75427;SDS011;64008;55.612;37.698;2023-08-31T05:58:19;8.95;;;4.40;;
75427;SDS011;64008;55.612;37.698;2023-08-31T06:00:45;8.38;;;4.22;;
75427;SDS011;64008;55.612;37.698;2023-08-31T06:03:11;8.80;;;4.57;;
75427;SDS011;64008;55.612;37.698;2023-08-31T06:05:36;7.40;;;4.10;;
75427;SDS011;64008;55.612;37.698;2023-08-31T06:08:02;9.68;;;4.07;;
75427;SDS011;64008;55.612;37.698;2023-08-31T06:10:28;8.93;;;4.70;;
75427;SDS011;64008;55.612;37.698;2023-08-31T06:12:54;8.93;;;4.30;;
75427;SDS011;64008;55.612;37.698;2023-08-31T06:15:19;9.70;;;4.20;;
75427;SDS011;64008;55.612;37.698;2023-08-31T06:17:45;11.05;;;3.90;;
75427;SDS011;64008;55.612;37.698;2023-08-31T06:20:10;8.02;;;3.97;;
75427;SDS011;64008;55.612;37.698;2023-08-31T06:22:36;8.68;;;3.70;;
75427;SDS011;64008;55.612;37.698;2023-08-31T06:25:02;9.55;;;4.22;;
75427;SDS011;64008;55.612;37.698;2023-08-31T06:27:31;8.82;;;3.90;;
75427;SDS011;64008;55.612;37.698;2023-08-31T06:29:57;9.63;;;4.53;;
75427;SDS011;64008;55.612;37.698;2023-08-31T06:32:22;8.82;;;4.35;;
75427;SDS011;64008;55.612;37.698;2023-08-31T06:34:48;7.70;;;4.00;;
75427;SDS011;64008;55.612;37.698;2023-08-31T06:37:13;6.53;;;3.70;;
75427;SDS011;64008;55.612;37.698;2023-08-31T06:39:39;6.88;;;3.55;;
75427;SDS011;64008;55.612;37.698;2023-08-31T06:42:06;8.38;;;4.10;;
75427;SDS011;64008;55.612;37.698;2023-08-31T06:44:31;8.27;;;4.13;;
75427;SDS011;64008;55.612;37.698;2023-08-31T06:46:57;8.35;;;3.53;;
75427;SDS011;64008;55.612;37.698;2023-08-31T06:49:22;9.75;;;4.43;;
75427;SDS011;64008;55.612;37.698;2023-08-31T06:51:48;8.32;;;3.72;;
75427;SDS011;64008;55.612;37.698;2023-08-31T06:54:14;8.25;;;3.63;;
75427;SDS011;64008;55.612;37.698;2023-08-31T06:56:39;8.32;;;3.45;;
75427;SDS011;64008;55.612;37.698;2023-08-31T06:59:06;7.60;;;3.45;;
75427;SDS011;64008;55.612;37.698;2023-08-31T07:01:32;8.18;;;3.50;;
75427;SDS011;64008;55.612;37.698;2023-08-31T07:04:00;8.55;;;3.58;;
75427;SDS011;64008;55.612;37.698;2023-08-31T07:06:26;7.50;;;3.22;;
75427;SDS011;64008;55.612;37.698;2023-08-31T07:08:51;6.53;;;3.10;;
75427;SDS011;64008;55.612;37.698;2023-08-31T07:11:17;8.07;;;3.55;;
75427;SDS011;64008;55.612;37.698;2023-08-31T07:13:43;8.80;;;3.10;;
75427;SDS011;64008;55.612;37.698;2023-08-31T07:16:08;7.60;;;3.10;;
75427;SDS011;64008;55.612;37.698;2023-08-31T07:18:34;7.60;;;3.65;;
75427;SDS011;64008;55.612;37.698;2023-08-31T07:21:01;6.82;;;3.67;;
75427;SDS011;64008;55.612;37.698;2023-08-31T07:23:26;7.82;;;3.50;;
75427;SDS011;64008;55.612;37.698;2023-08-31T07:25:52;6.65;;;3.20;;
75427;SDS011;64008;55.612;37.698;2023-08-31T07:28:22;7.25;;;3.20;;
75427;SDS011;64008;55.612;37.698;2023-08-31T07:30:48;8.23;;;3.00;;
75427;SDS011;64008;55.612;37.698;2023-08-31T07:33:13;8.20;;;2.97;;
75427;SDS011;64008;55.612;37.698;2023-08-31T07:35:39;6.57;;;2.90;;
75427;SDS011;64008;55.612;37.698;2023-08-31T07:38:04;6.72;;;2.95;;
75427;SDS011;64008;55.612;37.698;2023-08-31T07:40:30;7.30;;;2.90;;
75427;SDS011;64008;55.612;37.698;2023-08-31T07:42:55;7.55;;;2.85;;
75427;SDS011;64008;55.612;37.698;2023-08-31T07:45:21;5.78;;;2.70;;
75427;SDS011;64008;55.612;37.698;2023-08-31T07:47:46;6.85;;;3.00;;
75427;SDS011;64008;55.612;37.698;2023-08-31T07:50:12;8.25;;;3.03;;
75427;SDS011;64008;55.612;37.698;2023-08-31T07:52:39;7.75;;;2.60;;
75427;SDS011;64008;55.612;37.698;2023-08-31T07:55:04;7.30;;;2.83;;
75427;SDS011;64008;55.612;37.698;2023-08-31T07:57:30;6.20;;;2.33;;
75427;SDS011;64008;55.612;37.698;2023-08-31T07:59:56;7.88;;;3.10;;
75427;SDS011;64008;55.612;37.698;2023-08-31T08:02:21;5.72;;;2.40;;
75427;SDS011;64008;55.612;37.698;2023-08-31T08:04:47;6.75;;;3.10;;
75427;SDS011;64008;55.612;37.698;2023-08-31T08:07:12;7.45;;;3.17;;
75427;SDS011;64008;55.612;37.698;2023-08-31T08:09:38;6.63;;;3.20;;
75427;SDS011;64008;55.612;37.698;2023-08-31T08:12:03;7.10;;;3.22;;
75427;SDS011;64008;55.612;37.698;2023-08-31T08:14:29;7.40;;;2.95;;
75427;SDS011;64008;55.612;37.698;2023-08-31T08:16:55;6.75;;;2.92;;
75427;SDS011;64008;55.612;37.698;2023-08-31T08:19:21;6.75;;;3.63;;
75427;SDS011;64008;55.612;37.698;2023-08-31T08:21:48;10.20;;;2.95;;
75427;SDS011;64008;55.612;37.698;2023-08-31T08:24:14;8.40;;;3.17;;
75427;SDS011;64008;55.612;37.698;2023-08-31T08:26:39;7.93;;;2.75;;
75427;SDS011;64008;55.612;37.698;2023-08-31T08:29:05;6.43;;;2.75;;
75427;SDS011;64008;55.612;37.698;2023-08-31T08:31:30;6.28;;;2.90;;
75427;SDS011;64008;55.612;37.698;2023-08-31T08:33:56;5.90;;;2.58;;
75427;SDS011;64008;55.612;37.698;2023-08-31T08:36:21;6.30;;;2.60;;
75427;SDS011;64008;55.612;37.698;2023-08-31T08:38:47;10.95;;;3.45;;
75427;SDS011;64008;55.612;37.698;2023-08-31T08:41:12;6.57;;;2.63;;
75427;SDS011;64008;55.612;37.698;2023-08-31T08:43:39;7.20;;;3.08;;
75427;SDS011;64008;55.612;37.698;2023-08-31T08:46:09;7.10;;;2.92;;
75427;SDS011;64008;55.612;37.698;2023-08-31T08:48:34;6.82;;;2.50;;
75427;SDS011;64008;55.612;37.698;2023-08-31T08:51:03;5.93;;;2.80;;
75427;SDS011;64008;55.612;37.698;2023-08-31T08:53:29;6.18;;;3.00;;
75427;SDS011;64008;55.612;37.698;2023-08-31T08:55:55;6.20;;;2.72;;
75427;SDS011;64008;55.612;37.698;2023-08-31T08:58:20;6.40;;;2.70;;
75427;SDS011;64008;55.612;37.698;2023-08-31T09:00:46;5.47;;;3.05;;
75427;SDS011;64008;55.612;37.698;2023-08-31T09:03:13;6.35;;;2.78;;
75427;SDS011;64008;55.612;37.698;2023-08-31T09:05:38;5.25;;;2.55;;
75427;SDS011;64008;55.612;37.698;2023-08-31T09:08:05;6.55;;;2.75;;
75427;SDS011;64008;55.612;37.698;2023-08-31T09:10:38;5.70;;;2.83;;
75427;SDS011;64008;55.612;37.698;2023-08-31T09:13:12;6.30;;;2.55;;
75427;SDS011;64008;55.612;37.698;2023-08-31T09:15:46;5.93;;;2.75;;
75427;SDS011;64008;55.612;37.698;2023-08-31T09:20:48;6.03;;;2.65;;
75427;SDS011;64008;55.612;37.698;2023-08-31T09:23:14;4.70;;;2.70;;
75427;SDS011;64008;55.612;37.698;2023-08-31T09:25:50;5.50;;;2.55;;
75427;SDS011;64008;55.612;37.698;2023-08-31T09:28:23;5.50;;;2.70;;
75427;SDS011;64008;55.612;37.698;2023-08-31T09:30:53;7.25;;;2.45;;
75427;SDS011;64008;55.612;37.698;2023-08-31T09:33:30;5.25;;;2.33;;
75427;SDS011;64008;55.612;37.698;2023-08-31T09:35:56;5.57;;;2.50;;
75427;SDS011;64008;55.612;37.698;2023-08-31T09:38:25;5.93;;;3.00;;
75427;SDS011;64008;55.612;37.698;2023-08-31T09:40:50;6.03;;;3.13;;
75427;SDS011;64008;55.612;37.698;2023-08-31T09:43:22;6.22;;;2.80;;
75427;SDS011;64008;55.612;37.698;2023-08-31T09:48:14;5.03;;;2.40;;
75427;SDS011;64008;55.612;37.698;2023-08-31T09:50:41;5.18;;;2.60;;
75427;SDS011;64008;55.612;37.698;2023-08-31T09:53:09;5.00;;;2.38;;
75427;SDS011;64008;55.612;37.698;2023-08-31T09:55:36;7.20;;;2.63;;
75427;SDS011;64008;55.612;37.698;2023-08-31T09:58:05;6.75;;;2.63;;
75427;SDS011;64008;55.612;37.698;2023-08-31T10:00:33;6.88;;;2.47;;
75427;SDS011;64008;55.612;37.698;2023-08-31T10:03:02;5.43;;;2.72;;
75427;SDS011;64008;55.612;37.698;2023-08-31T10:05:29;5.72;;;2.55;;
75427;SDS011;64008;55.612;37.698;2023-08-31T10:07:54;8.02;;;2.38;;
75427;SDS011;64008;55.612;37.698;2023-08-31T10:10:20;5.40;;;2.70;;
75427;SDS011;64008;55.612;37.698;2023-08-31T10:12:50;7.00;;;2.80;;
75427;SDS011;64008;55.612;37.698;2023-08-31T10:15:17;5.07;;;2.40;;
75427;SDS011;64008;55.612;37.698;2023-08-31T10:17:43;6.72;;;2.70;;
75427;SDS011;64008;55.612;37.698;2023-08-31T10:20:10;5.03;;;2.45;;
75427;SDS011;64008;55.612;37.698;2023-08-31T10:22:37;5.68;;;2.35;;
75427;SDS011;64008;55.612;37.698;2023-08-31T10:25:04;5.32;;;2.58;;
75427;SDS011;64008;55.612;37.698;2023-08-31T10:27:43;6.10;;;2.45;;
75427;SDS011;64008;55.612;37.698;2023-08-31T10:33:01;5.40;;;2.15;;
75427;SDS011;64008;55.612;37.698;2023-08-31T10:35:48;5.03;;;2.38;;
75427;SDS011;64008;55.612;37.698;2023-08-31T10:41:03;6.43;;;2.67;;
75427;SDS011;64008;55.612;37.698;2023-08-31T10:43:54;5.95;;;2.13;;
75427;SDS011;64008;55.612;37.698;2023-08-31T10:46:25;6.22;;;2.60;;
75427;SDS011;64008;55.612;37.698;2023-08-31T10:48:59;5.20;;;2.63;;
75427;SDS011;64008;55.612;37.698;2023-08-31T10:51:27;6.13;;;3.03;;
75427;SDS011;64008;55.612;37.698;2023-08-31T10:59:20;5.75;;;2.80;;
75427;SDS011;64008;55.612;37.698;2023-08-31T11:04:26;6.15;;;2.67;;
75427;SDS011;64008;55.612;37.698;2023-08-31T11:09:36;7.25;;;2.97;;
75427;SDS011;64008;55.612;37.698;2023-08-31T11:12:03;5.97;;;2.60;;
75427;SDS011;64008;55.612;37.698;2023-08-31T11:14:28;6.50;;;2.50;;
75427;SDS011;64008;55.612;37.698;2023-08-31T11:16:54;6.65;;;3.00;;
75427;SDS011;64008;55.612;37.698;2023-08-31T11:19:20;5.70;;;2.72;;
75427;SDS011;64008;55.612;37.698;2023-08-31T11:21:45;5.10;;;2.83;;
75427;SDS011;64008;55.612;37.698;2023-08-31T11:24:11;7.10;;;2.90;;
75427;SDS011;64008;55.612;37.698;2023-08-31T11:26:37;5.28;;;3.00;;
75427;SDS011;64008;55.612;37.698;2023-08-31T11:31:31;5.53;;;2.38;;
75427;SDS011;64008;55.612;37.698;2023-08-31T11:33:56;6.30;;;2.80;;
75427;SDS011;64008;55.612;37.698;2023-08-31T11:36:22;7.93;;;2.60;;
75427;SDS011;64008;55.612;37.698;2023-08-31T11:38:48;5.28;;;2.83;;
75427;SDS011;64008;55.612;37.698;2023-08-31T11:43:39;5.28;;;2.28;;
75427;SDS011;64008;55.612;37.698;2023-08-31T11:46:06;5.18;;;2.45;;
75427;SDS011;64008;55.612;37.698;2023-08-31T11:48:32;7.32;;;3.00;;
75427;SDS011;64008;55.612;37.698;2023-08-31T11:50:58;6.10;;;2.90;;
75427;SDS011;64008;55.612;37.698;2023-08-31T11:53:24;8.77;;;3.13;;
75427;SDS011;64008;55.612;37.698;2023-08-31T11:55:52;5.40;;;2.57;;
75427;SDS011;64008;55.612;37.698;2023-08-31T11:58:21;5.82;;;2.35;;
75427;SDS011;64008;55.612;37.698;2023-08-31T12:00:58;6.28;;;3.03;;
75427;SDS011;64008;55.612;37.698;2023-08-31T12:03:24;5.07;;;2.45;;
75427;SDS011;64008;55.612;37.698;2023-08-31T12:08:23;5.18;;;2.50;;
75427;SDS011;64008;55.612;37.698;2023-08-31T12:10:51;5.97;;;3.00;;
75427;SDS011;64008;55.612;37.698;2023-08-31T12:13:16;5.75;;;2.80;;
75427;SDS011;64008;55.612;37.698;2023-08-31T12:15:42;5.47;;;3.00;;
75427;SDS011;64008;55.612;37.698;2023-08-31T12:20:34;7.18;;;2.63;;
75427;SDS011;64008;55.612;37.698;2023-08-31T12:23:06;5.32;;;2.42;;
75427;SDS011;64008;55.612;37.698;2023-08-31T12:25:33;5.68;;;2.85;;
75427;SDS011;64008;55.612;37.698;2023-08-31T12:27:58;5.90;;;2.83;;
75427;SDS011;64008;55.612;37.698;2023-08-31T12:30:24;5.32;;;2.60;;
75427;SDS011;64008;55.612;37.698;2023-08-31T12:32:51;5.07;;;2.50;;
75427;SDS011;64008;55.612;37.698;2023-08-31T12:35:17;6.10;;;3.03;;
75427;SDS011;64008;55.612;37.698;2023-08-31T12:37:43;7.72;;;2.75;;
75427;SDS011;64008;55.612;37.698;2023-08-31T12:40:08;5.80;;;2.67;;
75427;SDS011;64008;55.612;37.698;2023-08-31T12:42:35;5.20;;;2.60;;
75427;SDS011;64008;55.612;37.698;2023-08-31T12:45:01;5.00;;;2.53;;
75427;SDS011;64008;55.612;37.698;2023-08-31T12:47:26;5.47;;;2.55;;
75427;SDS011;64008;55.612;37.698;2023-08-31T12:49:52;5.13;;;2.65;;
75427;SDS011;64008;55.612;37.698;2023-08-31T12:52:17;5.93;;;2.53;;
75427;SDS011;64008;55.612;37.698;2023-08-31T12:54:43;5.85;;;2.75;;
75427;SDS011;64008;55.612;37.698;2023-08-31T12:57:08;5.15;;;2.38;;
75427;SDS011;64008;55.612;37.698;2023-08-31T12:59:34;6.00;;;2.38;;
75427;SDS011;64008;55.612;37.698;2023-08-31T13:01:59;6.93;;;2.63;;
75427;SDS011;64008;55.612;37.698;2023-08-31T13:04:25;6.00;;;2.88;;
75427;SDS011;64008;55.612;37.698;2023-08-31T13:06:50;8.88;;;2.80;;
75427;SDS011;64008;55.612;37.698;2023-08-31T13:09:16;5.60;;;2.53;;
75427;SDS011;64008;55.612;37.698;2023-08-31T13:11:41;7.60;;;3.10;;
75427;SDS011;64008;55.612;37.698;2023-08-31T13:14:07;6.03;;;2.90;;
75427;SDS011;64008;55.612;37.698;2023-08-31T13:16:32;10.13;;;3.45;;
75427;SDS011;64008;55.612;37.698;2023-08-31T13:18:58;7.45;;;3.45;;
75427;SDS011;64008;55.612;37.698;2023-08-31T13:21:23;11.20;;;3.13;;
75427;SDS011;64008;55.612;37.698;2023-08-31T13:23:49;5.18;;;2.78;;
75427;SDS011;64008;55.612;37.698;2023-08-31T13:26:14;6.57;;;2.75;;
75427;SDS011;64008;55.612;37.698;2023-08-31T13:28:40;5.15;;;2.70;;
75427;SDS011;64008;55.612;37.698;2023-08-31T13:31:06;6.15;;;2.42;;
75427;SDS011;64008;55.612;37.698;2023-08-31T13:33:31;6.60;;;2.33;;
75427;SDS011;64008;55.612;37.698;2023-08-31T13:35:57;5.70;;;3.20;;
75427;SDS011;64008;55.612;37.698;2023-08-31T13:38:26;5.57;;;2.33;;
75427;SDS011;64008;55.612;37.698;2023-08-31T13:40:55;9.23;;;2.88;;
75427;SDS011;64008;55.612;37.698;2023-08-31T13:43:22;7.20;;;3.40;;
75427;SDS011;64008;55.612;37.698;2023-08-31T13:45:48;5.90;;;3.00;;
75427;SDS011;64008;55.612;37.698;2023-08-31T13:48:14;6.30;;;2.75;;
75427;SDS011;64008;55.612;37.698;2023-08-31T13:50:39;5.38;;;2.72;;
75427;SDS011;64008;55.612;37.698;2023-08-31T13:53:05;5.55;;;2.50;;
75427;SDS011;64008;55.612;37.698;2023-08-31T13:55:30;7.93;;;3.13;;
75427;SDS011;64008;55.612;37.698;2023-08-31T13:58:03;8.25;;;3.58;;
75427;SDS011;64008;55.612;37.698;2023-08-31T14:00:30;7.95;;;3.47;;
75427;SDS011;64008;55.612;37.698;2023-08-31T14:02:55;8.98;;;3.40;;
75427;SDS011;64008;55.612;37.698;2023-08-31T14:05:23;6.80;;;3.00;;
75427;SDS011;64008;55.612;37.698;2023-08-31T14:07:49;5.80;;;2.95;;
75427;SDS011;64008;55.612;37.698;2023-08-31T14:12:40;4.90;;;2.70;;
75427;SDS011;64008;55.612;37.698;2023-08-31T14:15:06;6.28;;;2.58;;
75427;SDS011;64008;55.612;37.698;2023-08-31T14:17:31;6.22;;;2.90;;
75427;SDS011;64008;55.612;37.698;2023-08-31T14:20:00;6.30;;;3.05;;
75427;SDS011;64008;55.612;37.698;2023-08-31T14:22:30;5.88;;;2.55;;
75427;SDS011;64008;55.612;37.698;2023-08-31T14:24:56;6.05;;;3.03;;
75427;SDS011;64008;55.612;37.698;2023-08-31T14:27:21;5.97;;;3.22;;
75427;SDS011;64008;55.612;37.698;2023-08-31T14:32:13;6.50;;;2.70;;
75427;SDS011;64008;55.612;37.698;2023-08-31T14:34:39;5.15;;;2.53;;
75427;SDS011;64008;55.612;37.698;2023-08-31T14:37:04;6.00;;;2.65;;
75427;SDS011;64008;55.612;37.698;2023-08-31T14:39:30;5.50;;;2.65;;
75427;SDS011;64008;55.612;37.698;2023-08-31T14:41:56;5.85;;;2.70;;
75427;SDS011;64008;55.612;37.698;2023-08-31T14:44:23;8.13;;;3.20;;
75427;SDS011;64008;55.612;37.698;2023-08-31T14:46:48;5.68;;;3.05;;
75427;SDS011;64008;55.612;37.698;2023-08-31T14:49:14;6.68;;;3.05;;
75427;SDS011;64008;55.612;37.698;2023-08-31T14:51:39;6.35;;;3.45;;
75427;SDS011;64008;55.612;37.698;2023-08-31T14:54:05;5.38;;;3.28;;
75427;SDS011;64008;55.612;37.698;2023-08-31T14:58:57;6.47;;;2.67;;
75427;SDS011;64008;55.612;37.698;2023-08-31T15:01:22;6.03;;;3.22;;
75427;SDS011;64008;55.612;37.698;2023-08-31T15:03:49;6.57;;;2.88;;
75427;SDS011;64008;55.612;37.698;2023-08-31T15:06:15;6.60;;;3.40;;
75427;SDS011;64008;55.612;37.698;2023-08-31T15:08:41;11.25;;;3.97;;
75427;SDS011;64008;55.612;37.698;2023-08-31T15:11:07;7.30;;;3.88;;
75427;SDS011;64008;55.612;37.698;2023-08-31T15:13:33;6.82;;;3.75;;
75427;SDS011;64008;55.612;37.698;2023-08-31T15:15:59;7.70;;;3.30;;
75427;SDS011;64008;55.612;37.698;2023-08-31T15:18:25;9.20;;;3.70;;
75427;SDS011;64008;55.612;37.698;2023-08-31T15:20:52;9.32;;;3.55;;
75427;SDS011;64008;55.612;37.698;2023-08-31T15:23:17;8.07;;;3.28;;
75427;SDS011;64008;55.612;37.698;2023-08-31T15:25:43;6.13;;;3.00;;
75427;SDS011;64008;55.612;37.698;2023-08-31T15:28:08;5.68;;;2.92;;
75427;SDS011;64008;55.612;37.698;2023-08-31T15:30:34;5.43;;;2.80;;